Home > Products > Valid Products > MTR

000
SAUS41 KCAR 281816
MTR40B
METAR K40B 281816Z AUTO VRB02KT 21/17 A2967 RMK AO1 SLP039
     T02140166 10224 20185 57008





000
SAUS41 KCAR 281757
MTRGNR
METAR KGNR 281756Z AUTO 09009KT 19/18 A2962 RMK AO1 SLP029 P0001
60002 T01890183 10194 20167 58018





000
SAUS41 KCAR 281717
MTR40B
METAR K40B 281717Z AUTO VRB04KT 21/17 A2968 RMK AO1 SLP045
     T02130166 55006





000
SAUS41 KCAR 281657
MTRGNR
METAR KGNR 281656Z AUTO VRB06KT 19/18 A2966 RMK AO1 SLP043 P0001
T01890178





000
SAUS41 KCAR 281616
MTR40B
METAR K40B 281616Z AUTO VRB04KT 22/18 A2968 RMK AO1 SLP045
     T02180176 58005





000
SAUS41 KCAR 281557
MTRGNR
METAR KGNR 281556Z AUTO 11007KT 19/18 A2967 RMK AO1 SLP044 T01890178





000
SAUS41 KCAR 281516
MTR40B
METAR K40B 281516Z AUTO VRB04KT 21/17 A2969 RMK AO1 SLP049
     T02060173 50000





000
SAUS41 KCAR 281457
MTRGNR
METAR KGNR 281456Z AUTO 11005KT 18/17 A2968 RMK AO1 SLP047 T01830172
58007





000
SAUS41 KCAR 281417
MTR40B
METAR K40B 281417Z AUTO VRB03KT 20/17 A2970 RMK AO1 SLP052
     T02030170 54001





000
SAUS41 KCAR 281357
MTRGNR
METAR KGNR 281356Z AUTO 10006KT 18/17 A2969 RMK AO1 SLP053 T01780167





000
SAUS41 KCAR 281316
MTR40B
METAR K40B 281316Z AUTO VRB03KT 20/17 A2970 RMK AO1 SLP050
     T01980166 51005





000
SAUS41 KCAR 281257
MTRGNR
METAR KGNR 281256Z AUTO 11005KT 17/17 A2970 RMK AO1 SLP056 T01720167





000
SAUS41 KCAR 281216
MTR40B
METAR K40B 281216Z AUTO 00000KT 19/17 A2969 RMK AO1 SLP050
     T01860175 10186 20161 51010 70059





000
SAUS41 KCAR 281157
MTRGNR
METAR KGNR 281156Z AUTO 00000KT 17/16 A2970 RMK AO1 SLP055 70036
T01670161 10167 20167 51008





000
SAUS41 KCAR 281116
MTR40B
METAR K40B 281116Z AUTO VRB06KT 18/17 A2970 RMK AO1 SLP051
     T01780170 53012





000
SAUS41 KCAR 281057
MTRGNR
METAR KGNR 281056Z AUTO VRB03KT 17/16 A2969 RMK AO1 SLP053 T01670161





000
SAUS41 KCAR 281016
MTR40B
METAR K40B 281016Z AUTO 00000KT 17/17 A2968 RMK AO1 SLP045
     T01730171 53008





000
SAUS41 KCAR 280957
MTRGNR
METAR KGNR 280956Z AUTO 00000KT 17/16 A2969 RMK AO1 SLP051 T01670161





000
SAUS41 KCAR 280916
MTR40B
METAR K40B 280916Z AUTO 00000KT 16/16 A2966 RMK AO1 SLP039
     T01630159 55000





000
SAUS41 KCAR 280857
MTRGNR
METAR KGNR 280856Z AUTO 00000KT 17/16 A2967 RMK AO1 SLP047 T01670161
55001





000
SAUS41 KCAR 280816
MTR40B
METAR K40B 280816Z AUTO 00000KT 17/17 A2966 RMK AO1 SLP039
     T01720168 54001





000
SAUS41 KCAR 280757
MTRGNR
METAR KGNR 280756Z AUTO 00000KT 17/16 A2967 RMK AO1 SLP045 T01670161





000
SAUS41 KCAR 280716
MTR40B
METAR K40B 280716Z AUTO VRB04KT 18/17 A2965 RMK AO1 SLP036
     T01790170 58006





000
SAUS41 KCAR 280657
MTRGNR
METAR KGNR 280656Z AUTO 00000KT 17/16 A2967 RMK AO1 SLP045 T01670161





000
SAUS41 KCAR 280616
MTR40B
METAR K40B 280616Z AUTO VRB05G11KT 18/17 A2966 RMK AO1 SLP039
     T01790171 10181 20170 50000





000
SAUS41 KCAR 280557
MTRGNR
METAR KGNR 280556Z AUTO 00000KT 17/16 A2968 RMK AO1 SLP046 T01670161
10183 20167 58004





000
SAUS41 KCAR 280516
MTR40B
METAR K40B 280516Z AUTO VRB06KT 18/17 A2966 RMK AO1 SLP038
     T01780170 402490134 58005





000
SAUS41 KCAR 280457
MTRGNR
METAR KGNR 280456Z AUTO 19003KT 17/16 A2970 RMK AO1 SLP053 T01670161
402390133





000
SAUS41 KCAR 280416
MTR40B
METAR K40B 280416Z AUTO VRB05KT 18/17 A2967 RMK AO1 SLP042
     T01800171 55002





000
SAUS41 KCAR 280357
MTRGNR
METAR KGNR 280356Z AUTO VRB03KT 17/17 A2970 RMK AO1 SLP053 T01720167





000
SAUS41 KCAR 280316
MTR40B
METAR K40B 280316Z AUTO VRB04KT 18/17 A2966 RMK AO1 SLP038
     T01780172 50000





000
SAUS41 KCAR 280257
MTRGNR
METAR KGNR 280256Z AUTO 00000KT 18/17 A2969 RMK AO1 SLP050 T01780167
58004





000
SAUS41 KCAR 280216
MTR40B
METAR K40B 280216Z AUTO VRB06KT 17/17 A2968 RMK AO1 SLP041
     T01710166 50006





000
SAUS41 KCAR 280157
MTRGNR
METAR KGNR 280156Z AUTO 18006KT 18/17 A2971 RMK AO1 SLP056 T01780167





000
SAUS41 KCAR 280116
MTR40B
METAR K40B 280116Z AUTO VRB06KT 17/17 A2968 RMK AO1 SLP042
     T01720166 53007





000
SAUS41 KCAR 280057
MTRGNR
METAR KGNR 280056Z AUTO VRB03KT 18/17 A2971 RMK AO1 SLP058 T01830172





000
SAUS41 KCAR 280016
MTR40B
METAR K40B 280016Z AUTO VRB06KT 18/17 A2966 RMK AO1 SLP037
     T01760168 10191 20171 52003 60053





000
SAUS41 KCAR 272357
MTRGNR
METAR KGNR 272356Z AUTO 00000KT 18/17 A2970 RMK AO1 SLP055 60036
T01830172 10222 20178 53006





000
SAUS41 KCAR 272316
MTR40B
METAR K40B 272316Z AUTO VRB04KT 18/17 A2966 RMK AO1 SLP035
     T01840174 56007





000
SAUS41 KCAR 272257
MTRGNR
METAR KGNR 272256Z AUTO VRB06KT 19/17 A2969 RMK AO1 SLP053 T01890172





000
SAUS41 KCAR 272216
MTR40B
METAR K40B 272216Z AUTO 00000KT 18/17 A2966 RMK AO1 SLP035
     T01790173 56008 P0013





000
SAUS41 KCAR 272158
MTRGNR
METAR KGNR 272156Z AUTO 18007KT 19/18 A2969 RMK AO1 SLP052 T01940178





000
SAUS41 KCAR 272116
MTR40B
METAR K40B 272116Z AUTO VRB02KT 17/17 A2966 RMK AO1 SLP035
     T01730165 58011 P0021 60040





000
SAUS41 KCAR 272058
MTRGNR
METAR KGNR 272056Z AUTO 19007G15KT 18/17 A2968 RMK AO1 SLP051 P0003
60036 T01830172 56004





000
SAUS41 KCAR 272016
MTR40B
METAR K40B 272016Z AUTO VRB04KT 18/17 A2968 RMK AO1 SLP043
     T01800169 50001 P0010





000
SAUS41 KCAR 271957
MTRGNR
METAR KGNR 271956Z AUTO VRB05KT 18/17 A2968 RMK AO1 SLP052 P0033
T01830172





000
SAUS41 KCAR 271916
MTR40B
METAR K40B 271916Z AUTO 00000KT 18/17 A2968 RMK AO1 SLP045
     T01790167 50001 P0009





000
SAUS41 KCAR 271857
MTRGNR
METAR KGNR 271856Z AUTO 18009G19KT 21/16 A2969 RMK AO1 SLP053
T02060161





000
SAUS41 KCAR 271816
MTR40B
METAR K40B 271816Z AUTO VRB05KT 19/16 A2969 RMK AO1 SLP048
     T01890161 10249 20183 55007 P0006 60006





000
SAUS41 KCAR 271757
MTRGNR
METAR KGNR 271756Z AUTO 18011G21KT 22/15 A2970 RMK AO1 SLP053
T02220150 10239 20183 56021





000
SAUS41 KCAR 271716
MTR40B
METAR K40B 271716Z AUTO 17013G21KT 22/13 A2968 RMK AO1 SLP046
     T02230132 57018





000
SAUS41 KCAR 271657
MTRGNR
METAR KGNR 271656Z AUTO 17010G19KT 100V190 22/14 A2972 RMK AO1
SLP061 T02220144





000
SAUS41 KCAR 271616
MTR40B
METAR K40B 271616Z AUTO 13009G23KT 070V200 24/14 A2968 RMK AO1
     SLP047 T02390139 58020





000
SAUS41 KCAR 271557
MTRGNR
METAR KGNR 271556Z AUTO VRB06G16KT 23/14 A2973 RMK AO1 SLP065
T02330144





000
SAUS41 KCAR 271516
MTR40B
METAR K40B 271516Z AUTO 16010G21KT 120V190 22/14 A2971 RMK AO1
     SLP057 T02240137 57018





000
SAUS41 KCAR 271457
MTRGNR
METAR KGNR 271456Z AUTO 18008KT 22/14 A2976 RMK AO1 SLP075 T02220144
56014





000
SAUS41 KCAR 271416
MTR40B
METAR K40B 271416Z AUTO VRB04G13KT 20/13 A2973 RMK AO1 SLP065
     T02030133 57017





000
SAUS41 KCAR 271357
MTRGNR
METAR KGNR 271356Z AUTO VRB05KT 21/14 A2977 RMK AO1 SLP079 T02060139





000
SAUS41 KCAR 271316
MTR40B
METAR K40B 271316Z AUTO VRB06KT 19/13 A2975 RMK AO1 SLP070
     T01940135 58013





000
SAUS41 KCAR 271258
MTRGNR
METAR KGNR 271256Z AUTO VRB06KT 19/13 A2978 RMK AO1 SLP081 T01890133





000
SAUS41 KCAR 271216
MTR40B
METAR K40B 271216Z AUTO VRB05KT 19/14 A2976 RMK AO1 SLP077
     T01950144 10195 20134 58007





000
SAUS41 KCAR 271157
MTRGNR
METAR KGNR 271156Z AUTO 00000KT 18/13 A2980 RMK AO1 SLP089 T01830133
10183 20133 58006





000
SAUS41 KCAR 271116
MTR40B
METAR K40B 271116Z AUTO VRB03KT 16/13 A2978 RMK AO1 SLP083
     T01570130 54000





000
SAUS41 KCAR 271057
MTRGNR
METAR KGNR 271056Z AUTO 00000KT 17/12 A2982 RMK AO1 SLP094 T01720122





000
SAUS41 KCAR 271016
MTR40B
METAR K40B 271016Z AUTO VRB05KT 15/13 A2979 RMK AO1 SLP083
     T01510130 54000





000
SAUS41 KCAR 270957
MTRGNR
METAR KGNR 270956Z AUTO 00000KT 16/11 A2982 RMK AO1 SLP096 T01560111





000
SAUS41 KCAR 270916
MTR40B
METAR K40B 270916Z AUTO 00000KT 13/12 A2979 RMK AO1 SLP083
     T01350122 56003





000
SAUS41 KCAR 270857
MTRGNR
METAR KGNR 270856Z AUTO 00000KT 16/12 A2982 RMK AO1 SLP095 T01610122
55003





000
SAUS41 KCAR 270816
MTR40B
METAR K40B 270816Z AUTO VRB03KT 14/13 A2979 RMK AO1 SLP081
     T01400126 56006





000
SAUS41 KCAR 270757
MTRGNR
METAR KGNR 270756Z AUTO 00000KT 14/11 A2982 RMK AO1 SLP095 T01390111





000
SAUS41 KCAR 270716
MTR40B
METAR K40B 270716Z AUTO 00000KT 14/12 A2978 RMK AO1 SLP079
     T01420122 57010





000
SAUS41 KCAR 270657
MTRGNR
METAR KGNR 270656Z AUTO 00000KT 14/11 A2982 RMK AO1 SLP095 T01390111





000
SAUS41 KCAR 270616
MTR40B
METAR K40B 270616Z AUTO VRB02KT 15/13 A2980 RMK AO1 SLP083
     T01520125 10188 20146 56014





000
SAUS41 KCAR 270557
MTRGNR
METAR KGNR 270556Z AUTO 00000KT 15/11 A2983 RMK AO1 SLP099 T01500111
10200 20150 58009





000
SAUS41 KCAR 270516
MTR40B
METAR K40B 270516Z AUTO VRB03KT 16/12 A2980 RMK AO1 SLP085
     T01590123 402410129 58008





000
SAUS41 KCAR 270457
MTRGNR
METAR KGNR 270456Z AUTO 00000KT 16/12 A2985 RMK AO1 SLP104 T01560117
402390133





000
SAUS41 KCAR 270416
MTR40B
METAR K40B 270416Z AUTO 00000KT 15/13 A2982 RMK AO1 SLP088
     T01500133 58005





000
SAUS41 KCAR 270357
MTRGNR
METAR KGNR 270356Z AUTO 00000KT 16/13 A2985 RMK AO1 SLP107 T01560128





000
SAUS41 KCAR 270316
MTR40B
METAR K40B 270316Z AUTO 00000KT 15/14 A2984 RMK AO1 SLP096
     T01520136 53005





000
SAUS41 KCAR 270257
MTRGNR
METAR KGNR 270256Z AUTO 00000KT 16/14 A2986 RMK AO1 SLP108 T01560139
50008





000
SAUS41 KCAR 270216
MTR40B
METAR K40B 270216Z AUTO 00000KT 15/14 A2983 RMK AO1 SLP092
     T01510136 51009





000
SAUS41 KCAR 270157
MTRGNR
METAR KGNR 270156Z AUTO 00000KT 17/14 A2986 RMK AO1 SLP109 T01720144





000
SAUS41 KCAR 270116
MTR40B
METAR K40B 270116Z AUTO 00000KT 17/14 A2983 RMK AO1 SLP092
     T01660138 51014





000
SAUS41 KCAR 270057
MTRGNR
METAR KGNR 270056Z AUTO 00000KT 18/14 A2985 RMK AO1 SLP106 T01830144





000
SAUS41 KCAR 270017
MTR40B
METAR K40B 270017Z AUTO 00000KT 19/14 A2982 RMK AO1 SLP090
     T01880138 10241 20187 53012





000
SAUS41 KCAR 262357
MTRGNR
METAR KGNR 262356Z AUTO 18003KT 20/13 A2983 RMK AO1 SLP100 T02000133
10239 20194 53001





000
SAUS41 KCAR 262316
MTR40B
METAR K40B 262316Z AUTO 00000KT 21/12 A2980 RMK AO1 SLP083
     T02130120 53002





000
SAUS41 KCAR 262257
MTRGNR
METAR KGNR 262256Z AUTO 22/13 A2983 RMK AO1 SLP098 T02170128





000
SAUS41 KCAR 262216
MTR40B
METAR K40B 262216Z AUTO VRB05G12KT 23/10 A2979 RMK AO1 SLP079
     T02340099 55003





000
SAUS41 KCAR 262158
MTRGNR
METAR KGNR 262156Z AUTO 00000KT 22/12 A2983 RMK AO1 SLP099 T02220122





000
SAUS41 KCAR 262116
MTR40B
METAR K40B 262116Z AUTO VRB05G18KT 24/11 A2979 RMK AO1 SLP079
     T02380113 57008





000
SAUS41 KCAR 262057
MTRGNR
METAR KGNR 262056Z AUTO VRB03KT 23/14 A2983 RMK AO1 SLP098 T02330139
58011





000
SAUS41 KCAR 262016
MTR40B
METAR K40B 262016Z AUTO 22006G15KT 170V300 23/11 A2980 RMK AO1
     SLP084 T02260107 57009





000
SAUS41 KCAR 261957
MTRGNR
METAR KGNR 261956Z AUTO VRB03KT 23/12 A2985 RMK AO1 SLP104 T02280122





000
SAUS41 KCAR 261916
MTR40B
METAR K40B 261916Z AUTO 19015G24KT 23/11 A2980 RMK AO1 SLP087
     T02290106 58012





000
SAUS41 KCAR 261857
MTRGNR
METAR KGNR 261856Z AUTO VRB04KT 23/12 A2985 RMK AO1 SLP106 T02330117





000
SAUS41 KCAR 261816
MTR40B
METAR K40B 261816Z AUTO 20010G17KT 120V270 23/10 A2982 RMK AO1 PK
     WND 18029/1735 SLP093 T02300104 10236 20166 58005





000
SAUS41 KCAR 261757
MTRGNR
METAR KGNR 261756Z AUTO 00000KT 23/11 A2986 RMK AO1 SLP110 T02280111
10239 20161 58010





000
SAUS41 KCAR 261716
MTR40B
METAR K40B 261716Z AUTO VRB06G16KT 22/13 A2983 RMK AO1 SLP097
     T02160128 58005





000
SAUS41 KCAR 261657
MTRGNR
METAR KGNR 261656Z AUTO 24/11 A2987 RMK AO1 SLP113 T02390111





000
SAUS41 KCAR 261616
MTR40B
METAR K40B 261616Z AUTO 20009G16KT 150V230 20/13 A2984 RMK AO1
     SLP101 T02010126 57005





000
SAUS41 KCAR 261557
MTRGNR
METAR KGNR 261556Z AUTO VRB04KT 22/11 A2989 RMK AO1 SLP118 T02220111





000
SAUS41 KCAR 261516
MTR40B
METAR K40B 261516Z AUTO VRB05G17KT 20/12 A2984 RMK AO1 SLP101
     T01990123 57006





000
SAUS41 KCAR 261457
MTRGNR
METAR KGNR 261456Z AUTO 00000KT 22/12 A2989 RMK AO1 SLP120 T02170122
58005





000
SAUS41 KCAR 261416
MTR40B
METAR K40B 261416Z AUTO 21009G17KT 170V300 19/13 A2984 RMK AO1
     SLP105 T01880128 57005





000
SAUS41 KCAR 261357
MTRGNR
METAR KGNR 261356Z AUTO VRB03KT 20/12 A2990 RMK AO1 SLP123 T02000117





000
SAUS41 KCAR 261316
MTR40B
METAR K40B 261316Z AUTO 21008G16KT 140V270 18/12 A2985 RMK AO1
     SLP106 T01790125 57002





000
SAUS41 KCAR 261257
MTRGNR
METAR KGNR 261256Z AUTO VRB03KT 18/12 A2991 RMK AO1 SLP126 T01830117





000
SAUS41 KCAR 261216
MTR40B
METAR K40B 261216Z AUTO VRB04G10KT 17/12 A2985 RMK AO1 SLP108
     T01670124 10167 20129 51004 70002





000
SAUS41 KCAR 261157
MTRGNR
METAR KGNR 261156Z AUTO 00000KT 16/11 A2991 RMK AO1 SLP127 T01610111
10161 20133 51003





000
SAUS41 KCAR 261116
MTR40B
METAR K40B 261116Z AUTO VRB03KT 16/12 A2986 RMK AO1 SLP109
     T01560117 52005





000
SAUS41 KCAR 261057
MTRGNR
METAR KGNR 261056Z AUTO 00000KT 15/11 A2991 RMK AO1 SLP125 T01500111





000
SAUS41 KCAR 261016
MTR40B
METAR K40B 261016Z AUTO VRB03KT 13/11 A2985 RMK AO1 SLP108
     T01340111 53003





000
SAUS41 KCAR 260957
MTRGNR
METAR KGNR 260956Z AUTO 00000KT 14/11 A2990 RMK AO1 SLP124 T01390106





000
SAUS41 KCAR 260916
MTR40B
METAR K40B 260916Z AUTO VRB02KT 13/12 A2984 RMK AO1 SLP102
     T01320119 57002





000
SAUS41 KCAR 260857
MTRGNR
METAR KGNR 260856Z AUTO 00000KT 16/11 A2990 RMK AO1 SLP122 T01560111
55002





000
SAUS41 KCAR 260816
MTR40B
METAR K40B 260816Z AUTO VRB03KT 14/12 A2984 RMK AO1 SLP100
     T01400119 57005





000
SAUS41 KCAR 260757
MTRGNR
METAR KGNR 260756Z AUTO 00000KT 15/11 A2990 RMK AO1 SLP120 T01500106





000
SAUS41 KCAR 260716
MTR40B
METAR K40B 260716Z AUTO VRB02KT 14/12 A2984 RMK AO1 SLP101
     T01420121 57006





000
SAUS41 KCAR 260657
MTRGNR
METAR KGNR 260656Z AUTO 00000KT 15/11 A2990 RMK AO1 SLP121 T01500106





000
SAUS41 KCAR 260616
MTR40B
METAR K40B 260616Z AUTO VRB04KT 15/12 A2985 RMK AO1 SLP102
     T01480124 10164 20142 57004 60000





000
SAUS41 KCAR 260557
MTRGNR
METAR KGNR 260556Z AUTO 00000KT 15/11 A2990 RMK AO1 SLP124 T01500111
10194 20144 58000





000
SAUS41 KCAR 260516
MTR40B
METAR K40B 260516Z AUTO VRB04KT 15/13 A2985 RMK AO1 SLP102
     T01530128 402490092 57004 P0000





000
SAUS41 KCAR 260457
MTRGNR
METAR KGNR 260456Z AUTO 00000KT 16/11 A2991 RMK AO1 SLP125 T01610111
402390111





000
SAUS41 KCAR 260416
MTR40B
METAR K40B 260416Z AUTO VRB02KT 15/13 A2986 RMK AO1 SLP104
     T01480134 54000





000
SAUS41 KCAR 260357
MTRGNR
METAR KGNR 260356Z AUTO VRB03KT 17/11 A2991 RMK AO1 SLP125 T01670111





000
SAUS41 KCAR 260316
MTR40B
METAR K40B 260316Z AUTO VRB04KT 16/13 A2986 RMK AO1 SLP104
     T01560130 50002





000
SAUS41 KCAR 260257
MTRGNR
METAR KGNR 260256Z AUTO 00000KT 17/12 A2991 RMK AO1 SLP125 T01670117
51010





000
SAUS41 KCAR 260216
MTR40B
METAR K40B 260216Z AUTO VRB03KT 15/14 A2986 RMK AO1 SLP104
     T01500139 52004





000
SAUS41 KCAR 260157
MTRGNR
METAR KGNR 260156Z AUTO 00000KT 17/11 A2990 RMK AO1 SLP122 T01670111





000
SAUS41 KCAR 260116
MTR40B
METAR K40B 260116Z AUTO 00000KT 15/14 A2986 RMK AO1 SLP102
     T01500141 51009





000
SAUS41 KCAR 260057
MTRGNR
METAR KGNR 260056Z AUTO 00000KT 17/12 A2989 RMK AO1 SLP121 T01720117





000
SAUS41 KCAR 260016
MTR40B
METAR K40B 260016Z AUTO 00000KT 16/14 A2985 RMK AO1 SLP100
     T01630142 10249 20163 51011 60001





000
SAUS41 KCAR 252357
MTRGNR
METAR KGNR 252356Z AUTO 00000KT 19/12 A2988 RMK AO1 SLP116 T01890117
10239 20183 51007





000
SAUS41 KCAR 252316
MTR40B
METAR K40B 252316Z AUTO VRB02KT 18/14 A2985 RMK AO1 SLP099
     T01760145 53009 P0001





000
SAUS41 KCAR 252257
MTRGNR
METAR KGNR 252256Z AUTO 00000KT 21/12 A2987 RMK AO1 SLP114 T02110122





000
SAUS41 KCAR 252216
MTR40B
METAR K40B 252216Z AUTO VRB03KT 22/12 A2983 RMK AO1 SLP093
     T02180116 53002





000
SAUS41 KCAR 252158
MTRGNR
METAR KGNR 252156Z AUTO 00000KT 22/12 A2986 RMK AO1 SLP111 T02220122





000
SAUS41 KCAR 252116
MTR40B
METAR K40B 252116Z AUTO VRB04G11KT 24/11 A2982 RMK AO1 SLP091
     T02370106 57003





000
SAUS41 KCAR 252057
MTRGNR
METAR KGNR 252056Z AUTO 00000KT 23/12 A2985 RMK AO1 SLP107 T02330117
56007





000
SAUS41 KCAR 252016
MTR40B
METAR K40B 252016Z AUTO VRB05G16KT 24/10 A2982 RMK AO1 SLP092
     T02420101 57008





000
SAUS41 KCAR 251957
MTRGNR
METAR KGNR 251956Z AUTO VRB05KT 23/11 A2986 RMK AO1 SLP112 T02330111





000
SAUS41 KCAR 251916
MTR40B
METAR K40B 251916Z AUTO VRB05G17KT 24/10 A2983 RMK AO1 SLP096
     T02400102 57011





000
SAUS41 KCAR 251857
MTRGNR
METAR KGNR 251856Z AUTO VRB05KT 22/12 A2986 RMK AO1 SLP112 T02220122





    US Dept of Commerce
    National Oceanic and Atmospheric Administration
    National Weather Service
    1325 East West Highway
    Silver Spring, MD 20910
    Page Author: NWS Internet Services Team
Disclaimer
Information Quality
Credits
Glossary
Privacy Policy
Freedom of Information Act (FOIA)
About Us
Career Opportunities